Time;durP1;ratioP1;P1;durP2;ratioP2;P2;SDS_P1;SDS_P2;PMS_P1;PMS_P2;Temp;Humidity;BMP_temperature;BMP_pressure;BME280_temperature;BME280_humidity;BME280_pressure;Samples;Min_cycle;Max_cycle;Signal;HPM_P1;HPM_P2
2022/04/03 00:03:58;;;;;;;;;;;;;;;;;;10454342;28;20245;-74
2022/04/03 00:09:01;;;;;;;;;;;;;;;;;;10473897;28;19984;-72
2022/04/03 00:14:04;;;;;;;;;;;;;;;;;;10463001;28;19946;-74
2022/04/03 00:19:08;;;;;;;;;;;;;;;;;;10453848;28;19967;-72
2022/04/03 00:24:12;;;;;;;;;;;;;;;;;;10484502;28;19927;-72
2022/04/03 00:29:15;;;;;;;;;;;;;;;;;;10488133;28;19920;-73
2022/04/03 00:34:17;;;;;;;;;;;;;;;;;;10476059;28;19920;-72
2022/04/03 00:39:21;;;;;;;;;;;;;;;;;;10492671;28;19920;-73
2022/04/03 00:44:24;;;;;;;;;;;;;;;;;;10494488;28;19924;-73
2022/04/03 00:49:27;;;;;;;;;;;;;;;;;;10473144;28;19924;-73
2022/04/03 00:54:29;;;;;;;;;;;;;;;;;;10479402;28;19962;-72
2022/04/03 00:59:33;;;;;;;;;;;;;;;;;;10491291;28;19924;-73
2022/04/03 01:04:36;;;;;;;;;;;;;;;;;;10480690;28;19970;-72
2022/04/03 01:09:39;;;;;;;;;;;;;;;;;;10464220;28;20014;-71
2022/04/03 01:14:42;;;;;;;;;;;;;;;;;;10485714;28;19936;-73
2022/04/03 01:19:46;;;;;;;;;;;;;;;;;;10467281;28;19928;-73
2022/04/03 01:24:49;;;;;;;;;;;;;;;;;;10459770;28;20354;-72
2022/04/03 01:29:52;;;;;;;;;;;;;;;;;;10487064;28;19927;-73
2022/04/03 01:34:55;;;;;;;;;;;;;;;;;;10483335;28;20278;-73
2022/04/03 01:39:59;;;;;;;;;;;;;;;;;;10462867;28;20342;-72
2022/04/03 01:45:02;;;;;;;;;;;;;;;;;;10468248;28;19924;-73
2022/04/03 01:50:06;;;;;;;;;;;;;;;;;;10484435;28;20069;-71
2022/04/03 01:55:09;;;;;;;;;;;;;;;;;;10466378;28;19946;-72
2022/04/03 02:00:13;;;;;;;;;;;;;;;;;;10485521;28;19950;-72
2022/04/03 02:05:16;;;;;;;;;;;;;;;;;;10495397;23;19931;-73
2022/04/03 02:10:19;;;;;;;;;;;;;;;;;;10506620;28;19919;-75
2022/04/03 02:15:23;;;;;;;;;;;;;;;;;;10517907;28;19924;-74
2022/04/03 02:20:26;;;;;;;;;;;;;;;;;;10501817;28;20307;-75
2022/04/03 02:25:29;;;;;;;;;;;;;;;;;;10501289;28;20408;-73
2022/04/03 02:30:32;;;;;;;;;;;;;;;;;;10519126;28;19924;-74
2022/04/03 02:35:36;;;;;;;;;;;;;;;;;;10501036;28;20003;-74
2022/04/03 02:40:39;;;;;;;;;;;;;;;;;;10499015;28;20008;-74
2022/04/03 02:45:42;;;;;;;;;;;;;;;;;;10499715;28;19920;-75
2022/04/03 02:50:45;;;;;;;;;;;;;;;;;;10499561;28;19920;-75
2022/04/03 02:55:48;;;;;;;;;;;;;;;;;;10499869;28;20023;-74
2022/04/03 03:00:51;;;;;;;;;;;;;;;;;;10521072;28;20202;-76
2022/04/03 03:05:54;;;;;;;;;;;;;;;;;;10500409;28;19928;-74
2022/04/03 03:10:58;;;;;;;;;;;;;;;;;;10500825;28;19928;-75
2022/04/03 03:16:01;;;;;;;;;;;;;;;;;;10500591;28;19920;-75
2022/04/03 03:21:03;;;;;;;;;;;;;;;;;;10502041;28;19920;-74
2022/04/03 03:26:06;;;;;;;;;;;;;;;;;;10500764;28;19977;-73
2022/04/03 03:31:09;;;;;;;;;;;;;;;;;;10503377;28;19927;-75
2022/04/03 03:36:12;;;;;;;;;;;;;;;;;;10521138;28;19993;-76
2022/04/03 03:41:15;;;;;;;;;;;;;;;;;;10494662;28;19924;-75
2022/04/03 03:46:18;;;;;;;;;;;;;;;;;;10500789;28;20085;-75
2022/04/03 03:51:20;;;;;;;;;;;;;;;;;;10498960;28;19924;-72
2022/04/03 03:56:23;;;;;;;;;;;;;;;;;;10516064;28;20256;-74
2022/04/03 04:01:25;;;;;;;;;;;;;;;;;;10500935;28;20457;-74
2022/04/03 04:06:28;;;;;;;;;;;;;;;;;;10498607;28;20307;-75
2022/04/03 04:11:31;;;;;;;;;;;;;;;;;;10528037;28;19920;-75
2022/04/03 04:16:35;;;;;;;;;;;;;;;;;;10524327;28;20008;-76
2022/04/03 04:21:41;;;;;;;;;;;;;;;;;;10522834;28;19928;-75
2022/04/03 04:26:44;;;;;;;;;;;;;;;;;;10524452;28;19923;-73
2022/04/03 04:31:46;;;;;;;;;;;;;;;;;;10527377;28;20368;-75
2022/04/03 04:36:49;;;;;;;;;;;;;;;;;;10503891;28;19920;-74
2022/04/03 04:41:56;;;;;;;;;;;;;;;;;;10529493;28;19936;-73
2022/04/03 04:46:59;;;;;;;;;;;;;;;;;;10529912;28;20292;-74
2022/04/03 04:52:03;;;;;;;;;;;;;;;;;;10502146;28;19924;-74
2022/04/03 04:57:06;;;;;;;;;;;;;;;;;;10525204;28;20319;-74
2022/04/03 05:02:09;;;;;;;;;;;;;;;;;;10504071;28;20418;-74
2022/04/03 05:07:12;;;;;;;;;;;;;;;;;;10502083;28;20460;-74
2022/04/03 05:12:15;;;;;;;;;;;;;;;;;;10489217;28;19928;-76
2022/04/03 05:17:18;;;;;;;;;;;;;;;;;;10481737;28;19927;-75
2022/04/03 05:22:23;;;;;;;;;;;;;;;;;;10478850;28;20023;-73
2022/04/03 05:27:26;;;;;;;;;;;;;;;;;;10510427;28;19928;-73
2022/04/03 05:32:30;;;;;;;;;;;;;;;;;;10475727;28;19952;-74
2022/04/03 05:37:33;;;;;;;;;;;;;;;;;;10489950;28;19920;-73
2022/04/03 05:42:35;;;;;;;;;;;;;;;;;;10474099;28;20004;-74
2022/04/03 05:47:38;;;;;;;;;;;;;;;;;;10482145;28;19921;-72
2022/04/03 05:52:44;;;;;;;;;;;;;;;;;;10477714;28;19920;-75
2022/04/03 05:57:47;;;;;;;;;;;;;;;;;;10477174;28;20226;-73
2022/04/03 06:02:51;;;;;;;;;;;;;;;;;;10476042;28;20395;-74
2022/04/03 06:07:54;;;;;;;;;;;;;;;;;;10488073;28;19999;-74
2022/04/03 06:12:57;;;;;;;;;;;;;;;;;;10469559;28;19920;-73
2022/04/03 06:18:01;;;;;;;;;;;;;;;;;;10472404;28;20392;-75
2022/04/03 06:23:04;;;;;;;;;;;;;;;;;;10476535;28;19932;-75
2022/04/03 06:28:07;;;;;;;;;;;;;;;;;;10479800;28;20395;-73
2022/04/03 06:33:10;;;;;;;;;;;;;;;;;;10472068;28;20314;-74
2022/04/03 06:38:13;;;;;;;;;;;;;;;;;;10484609;28;19947;-75
2022/04/03 06:43:17;;;;;;;;;;;;;;;;;;10474293;28;19944;-74
2022/04/03 06:48:20;;;;;;;;;;;;;;;;;;10473008;28;19928;-73
2022/04/03 06:53:23;;;;;;;;;;;;;;;;;;10491864;28;19924;-72
2022/04/03 06:58:26;;;;;;;;;;;;;;;;;;10472820;28;20391;-72
2022/04/03 07:03:31;;;;;;;;;;;;;;;;;;10491208;28;19920;-74
2022/04/03 07:08:34;;;;;;;;;;;;;;;;;;10495178;28;19969;-74
2022/04/03 07:13:37;;;;;;;;;;;;;;;;;;10461867;28;20358;-73
2022/04/03 07:18:40;;;;;;;;;;;;;;;;;;10487830;28;20038;-73
2022/04/03 07:23:43;;;;;;;;;;;;;;;;;;10488676;28;20027;-73
2022/04/03 07:28:47;;;;;;;;;;;;;;;;;;10489027;28;19959;-73
2022/04/03 07:33:50;;;;;;;;;;;;;;;;;;10465724;28;20252;-74
2022/04/03 07:38:53;;;;;;;;;;;;;;;;;;10488775;28;19924;-75
2022/04/03 07:43:57;;;;;;;;;;;;;;;;;;10463209;28;20027;-73
2022/04/03 07:49:03;;;;;;;;;;;;;;;;;;10484425;28;19946;-73
2022/04/03 07:54:06;;;;;;;;;;;;;;;;;;10467752;28;19939;-71
2022/04/03 07:59:09;;;;;;;;;;;;;;;;;;10471828;28;19920;-72
2022/04/03 08:04:13;;;;;;;;;;;;;;;;;;10505828;28;19920;-73
2022/04/03 08:09:17;;;;;;;;;;;;;;;;;;10508270;22;19949;-74
2022/04/03 08:14:20;;;;;;;;;;;;;;;;;;10461332;28;20651;-72
2022/04/03 08:19:22;;;;;;;;;;;;;;;;;;10504024;28;19919;-73
2022/04/03 08:24:26;;;;;;;;;;;;;;;;;;10515449;28;20345;-74
2022/04/03 08:29:29;;;;;;;;;;;;;;;;;;10508209;28;19967;-75
2022/04/03 08:34:32;;;;;;;;;;;;;;;;;;10503498;28;19920;-74
2022/04/03 08:39:50;;;;;;;;;;;;;;;;;;10491493;28;19920;-74
2022/04/03 08:44:52;;;;;;;;;;;;;;;;;;10520272;28;19920;-76
2022/04/03 08:49:55;;;;;;;;;;;;;;;;;;10516360;28;20011;-75
2022/04/03 08:54:58;;;;;;;;;;;;;;;;;;10502730;28;19949;-74
2022/04/03 09:00:03;;;;;;;;;;;;;;;;;;10517438;28;19923;-74
2022/04/03 09:05:05;;;;;;;;;;;;;;;;;;10503823;28;19959;-73
2022/04/03 09:10:08;;;;;;;;;;;;;;;;;;10519719;28;20361;-73
2022/04/03 09:15:12;;;;;;;;;;;;;;;;;;10525794;28;20391;-74
2022/04/03 09:20:15;;;;;;;;;;;;;;;;;;10528115;28;20217;-72
2022/04/03 09:25:19;;;;;;;;;;;;;;;;;;10515589;28;19920;-74
2022/04/03 09:30:21;;;;;;;;;;;;;;;;;;10527646;28;19920;-74
2022/04/03 09:35:25;;;;;;;;;;;;;;;;;;10519885;28;19927;-74
2022/04/03 09:40:29;;;;;;;;;;;;;;;;;;10524549;28;19928;-74
2022/04/03 09:45:32;;;;;;;;;;;;;;;;;;10523451;28;20172;-75
2022/04/03 09:50:34;;;;;;;;;;;;;;;;;;10524933;28;19920;-75
2022/04/03 09:55:37;;;;;;;;;;;;;;;;;;10508637;28;19973;-77
2022/04/03 10:00:41;;;;;;;;;;;;;;;;;;10507897;28;19938;-74
2022/04/03 10:05:44;;;;;;;;;;;;;;;;;;10490714;28;20360;-74
2022/04/03 10:10:47;;;;;;;;;;;;;;;;;;10496828;28;19920;-76
2022/04/03 10:15:52;;;;;;;;;;;;;;;;;;10518724;28;19920;-76
2022/04/03 10:20:55;;;;;;;;;;;;;;;;;;10536400;28;19931;-75
2022/04/03 10:25:59;;;;;;;;;;;;;;;;;;10523503;28;19935;-75
2022/04/03 10:31:06;;;;;;;;;;;;;;;;;;10524135;28;19926;-75
2022/04/03 10:36:10;;;;;;;;;;;;;;;;;;10503711;28;20429;-75
2022/04/03 10:41:12;;;;;;;;;;;;;;;;;;10506386;28;19920;-76
2022/04/03 10:46:17;;;;;;;;;;;;;;;;;;10503591;28;19920;-75
2022/04/03 10:51:23;;;;;;;;;;;;;;;;;;10523314;28;20369;-74
2022/04/03 10:56:27;;;;;;;;;;;;;;;;;;10515201;28;19920;-75
2022/04/03 11:01:29;;;;;;;;;;;;;;;;;;10501269;28;20430;-75
2022/04/03 11:06:32;;;;;;;;;;;;;;;;;;10520023;28;19919;-75
2022/04/03 11:11:37;;;;;;;;;;;;;;;;;;10502874;28;20039;-75
2022/04/03 11:16:40;;;;;;;;;;;;;;;;;;10515221;28;19920;-73
2022/04/03 11:21:42;;;;;;;;;;;;;;;;;;10524866;28;19927;-73
2022/04/03 11:26:45;;;;;;;;;;;;;;;;;;10500752;28;20146;-75
2022/04/03 11:31:48;;;;;;;;;;;;;;;;;;10515554;28;19985;-73
2022/04/03 11:36:51;;;;;;;;;;;;;;;;;;10521170;28;19924;-74
2022/04/03 11:41:54;;;;;;;;;;;;;;;;;;10519117;28;19927;-73
2022/04/03 11:46:57;;;;;;;;;;;;;;;;;;10524209;28;19949;-75
2022/04/03 11:51:59;;;;;;;;;;;;;;;;;;10507125;28;19924;-74
2022/04/03 11:57:02;;;;;;;;;;;;;;;;;;10524453;28;19924;-74
2022/04/03 12:02:04;;;;;;;;;;;;;;;;;;10519330;28;20388;-73
2022/04/03 12:07:12;;;;;;;;;;;;;;;;;;10502673;28;19920;-75
2022/04/03 12:12:15;;;;;;;;;;;;;;;;;;10502988;28;20383;-75
2022/04/03 12:17:18;;;;;;;;;;;;;;;;;;10517985;28;19966;-74
2022/04/03 12:22:23;;;;;;;;;;;;;;;;;;10502070;28;20509;-73
2022/04/03 12:27:26;;;;;;;;;;;;;;;;;;10500177;28;20020;-75
2022/04/03 12:32:32;;;;;;;;;;;;;;;;;;10525764;28;19955;-75
2022/04/03 12:37:35;;;;;;;;;;;;;;;;;;10510975;28;19920;-74
2022/04/03 12:42:38;;;;;;;;;;;;;;;;;;10526745;28;20297;-73
2022/04/03 12:47:40;;;;;;;;;;;;;;;;;;10503399;28;19924;-75
2022/04/03 12:52:45;;;;;;;;;;;;;;;;;;10516435;28;20014;-74
2022/04/03 13:03:09;;;;;;;;;;;;;;;;;;10508121;28;19928;-75
2022/04/03 13:08:12;;;;;;;;;;;;;;;;;;10503697;28;19928;-74
2022/04/03 13:13:15;;;;;;;;;;;;;;;;;;10526141;28;19946;-74
2022/04/03 13:18:18;;;;;;;;;;;;;;;;;;10507180;28;19924;-72
2022/04/03 13:23:21;;;;;;;;;;;;;;;;;;10503666;28;19931;-73
2022/04/03 13:28:25;;;;;;;;;;;;;;;;;;10500530;28;19924;-73
2022/04/03 13:33:27;;;;;;;;;;;;;;;;;;10498077;28;20002;-73
2022/04/03 13:38:30;;;;;;;;;;;;;;;;;;10523254;28;19950;-73
2022/04/03 13:43:34;;;;;;;;;;;;;;;;;;10521982;28;20449;-72
2022/04/03 13:48:37;;;;;;;;;;;;;;;;;;10503806;28;19926;-72
2022/04/03 13:53:40;;;;;;;;;;;;;;;;;;10503968;28;19950;-72
2022/04/03 13:58:42;;;;;;;;;;;;;;;;;;10519223;28;19920;-72
2022/04/03 14:03:47;;;;;;;;;;;;;;;;;;10521064;28;19959;-73
2022/04/03 14:08:51;;;;;;;;;;;;;;;;;;10515177;22;19927;-74
2022/04/03 14:13:54;;;;;;;;;;;;;;;;;;10470393;28;20003;-74
2022/04/03 14:18:57;;;;;;;;;;;;;;;;;;10458502;28;20037;-74
2022/04/03 14:24:01;;;;;;;;;;;;;;;;;;10435554;28;19924;-73
2022/04/03 14:29:05;;;;;;;;;;;;;;;;;;10437102;28;20003;-74
2022/04/03 14:34:07;;;;;;;;;;;;;;;;;;10440831;28;20421;-73
2022/04/03 14:39:11;;;;;;;;;;;;;;;;;;10443984;28;19921;-73
2022/04/03 14:44:13;;;;;;;;;;;;;;;;;;10445377;28;19921;-74
2022/04/03 14:49:16;;;;;;;;;;;;;;;;;;10443434;28;19993;-73
2022/04/03 14:54:19;;;;;;;;;;;;;;;;;;10432388;28;19929;-73
2022/04/03 14:59:22;;;;;;;;;;;;;;;;;;10455200;28;19987;-74
2022/04/03 15:04:25;;;;;;;;;;;;;;;;;;10445780;28;19947;-75
2022/04/03 15:09:35;;;;;;;;;;;;;;;;;;10444387;28;20337;-75
2022/04/03 15:14:38;;;;;;;;;;;;;;;;;;10457783;28;19965;-75
2022/04/03 15:19:40;;;;;;;;;;;;;;;;;;10488837;28;19959;-73
2022/04/03 15:24:45;;;;;;;;;;;;;;;;;;10478003;28;19924;-73
2022/04/03 15:29:48;;;;;;;;;;;;;;;;;;10476882;28;19932;-73
2022/04/03 15:34:51;;;;;;;;;;;;;;;;;;10487492;28;19935;-76
2022/04/03 15:39:54;;;;;;;;;;;;;;;;;;10474524;28;20354;-74
2022/04/03 15:44:57;;;;;;;;;;;;;;;;;;10460679;28;19959;-73
2022/04/03 15:50:00;;;;;;;;;;;;;;;;;;10473171;28;19925;-73
2022/04/03 15:55:03;;;;;;;;;;;;;;;;;;10483972;28;19920;-73
2022/04/03 16:00:06;;;;;;;;;;;;;;;;;;10478926;28;19977;-75
2022/04/03 16:05:09;;;;;;;;;;;;;;;;;;10483904;28;20415;-72
2022/04/03 16:10:26;;;;;;;;;;;;;;;;;;10509226;28;20376;-73
2022/04/03 16:15:29;;;;;;;;;;;;;;;;;;10475554;28;20256;-75
2022/04/03 16:20:34;;;;;;;;;;;;;;;;;;10501281;28;20374;-73
2022/04/03 16:25:37;;;;;;;;;;;;;;;;;;10469620;28;20414;-74
2022/04/03 16:30:40;;;;;;;;;;;;;;;;;;10479252;28;19934;-74
2022/04/03 16:35:43;;;;;;;;;;;;;;;;;;10497314;28;20365;-75
2022/04/03 16:40:46;;;;;;;;;;;;;;;;;;10486249;28;20376;-74
2022/04/03 16:45:49;;;;;;;;;;;;;;;;;;10492399;28;20035;-75
2022/04/03 16:50:51;;;;;;;;;;;;;;;;;;10502833;28;19935;-74
2022/04/03 16:55:54;;;;;;;;;;;;;;;;;;10498076;28;19924;-77
2022/04/03 17:00:57;;;;;;;;;;;;;;;;;;10483123;28;19932;-75
2022/04/03 17:06:00;;;;;;;;;;;;;;;;;;10485990;28;19930;-76
2022/04/03 17:11:02;;;;;;;;;;;;;;;;;;10488647;28;19998;-75
2022/04/03 17:16:05;;;;;;;;;;;;;;;;;;10486913;28;19920;-74
2022/04/03 17:21:08;;;;;;;;;;;;;;;;;;10488776;28;20356;-72
2022/04/03 17:26:13;;;;;;;;;;;;;;;;;;10474708;28;19952;-75
2022/04/03 17:31:15;;;;;;;;;;;;;;;;;;10489420;28;20475;-76
2022/04/03 17:36:18;;;;;;;;;;;;;;;;;;10469559;28;19924;-72
2022/04/03 17:41:21;;;;;;;;;;;;;;;;;;10489662;28;20345;-75
2022/04/03 17:46:25;;;;;;;;;;;;;;;;;;10477185;28;19921;-76
2022/04/03 17:51:27;;;;;;;;;;;;;;;;;;10471775;28;19940;-75
2022/04/03 17:56:30;;;;;;;;;;;;;;;;;;10468048;28;19936;-75
2022/04/03 18:01:33;;;;;;;;;;;;;;;;;;10492548;28;19924;-76
2022/04/03 18:06:36;;;;;;;;;;;;;;;;;;10493893;28;19975;-74
2022/04/03 18:11:39;;;;;;;;;;;;;;;;;;10481267;28;19931;-75
2022/04/03 18:16:42;;;;;;;;;;;;;;;;;;10495585;28;19954;-77
2022/04/03 18:21:45;;;;;;;;;;;;;;;;;;10496500;28;19920;-73
2022/04/03 18:26:48;;;;;;;;;;;;;;;;;;10453947;28;19928;-76
2022/04/03 18:31:51;;;;;;;;;;;;;;;;;;10477438;28;19928;-74
2022/04/03 18:36:54;;;;;;;;;;;;;;;;;;10481644;28;20410;-74
2022/04/03 18:41:58;;;;;;;;;;;;;;;;;;10451556;28;20443;-74
2022/04/03 18:47:01;;;;;;;;;;;;;;;;;;10457170;28;20398;-74
2022/04/03 18:52:04;;;;;;;;;;;;;;;;;;10471444;28;19935;-76
2022/04/03 18:57:09;;;;;;;;;;;;;;;;;;10457413;28;19928;-75
2022/04/03 19:02:12;;;;;;;;;;;;;;;;;;10471942;28;19929;-73
2022/04/03 19:07:14;;;;;;;;;;;;;;;;;;10454008;28;20057;-74
2022/04/03 19:12:17;;;;;;;;;;;;;;;;;;10454686;28;19947;-74
2022/04/03 19:17:21;;;;;;;;;;;;;;;;;;10476596;28;20023;-74
2022/04/03 19:22:25;;;;;;;;;;;;;;;;;;10465474;28;19955;-75
2022/04/03 19:27:28;;;;;;;;;;;;;;;;;;10473924;28;20130;-75
2022/04/03 19:32:31;;;;;;;;;;;;;;;;;;10476455;28;19972;-74
2022/04/03 19:37:34;;;;;;;;;;;;;;;;;;10483583;28;19920;-73
2022/04/03 19:42:37;;;;;;;;;;;;;;;;;;10466935;28;19930;-75
2022/04/03 19:47:40;;;;;;;;;;;;;;;;;;10458548;28;19920;-75
2022/04/03 19:52:43;;;;;;;;;;;;;;;;;;10474918;28;20331;-75
2022/04/03 19:57:46;;;;;;;;;;;;;;;;;;10459115;28;20306;-74
2022/04/03 20:02:49;;;;;;;;;;;;;;;;;;10465894;28;20256;-75
2022/04/03 20:13:07;;;;;;;;;;;;;;;;;;10317122;28;19925;-74
2022/04/03 20:18:13;;;;;;;;;;;;;;;;;;10316426;28;19981;-74
2022/04/03 20:23:16;;;;;;;;;;;;;;;;;;10334799;28;19929;-75
2022/04/03 20:28:23;;;;;;;;;;;;;;;;;;10360812;28;19956;-75
2022/04/03 20:33:27;;;;;;;;;;;;;;;;;;10358336;28;20024;-75
2022/04/03 20:38:30;;;;;;;;;;;;;;;;;;10355157;28;19922;-75
2022/04/03 20:43:33;;;;;;;;;;;;;;;;;;10357418;28;19925;-74
2022/04/03 20:48:37;;;;;;;;;;;;;;;;;;10338352;28;19929;-75
2022/04/03 20:53:40;;;;;;;;;;;;;;;;;;10377940;28;19929;-74
2022/04/03 20:58:43;;;;;;;;;;;;;;;;;;10363515;28;19964;-74
2022/04/03 21:03:46;;;;;;;;;;;;;;;;;;10364827;28;19921;-74
2022/04/03 21:08:49;;;;;;;;;;;;;;;;;;10343802;28;19988;-74
2022/04/03 21:13:52;;;;;;;;;;;;;;;;;;10358841;28;19975;-75
2022/04/03 21:18:55;;;;;;;;;;;;;;;;;;10360707;28;19921;-75
2022/04/03 21:23:58;;;;;;;;;;;;;;;;;;10340054;28;19967;-71
2022/04/03 21:29:00;;;;;;;;;;;;;;;;;;10342615;28;19975;-74
2022/04/03 21:34:03;;;;;;;;;;;;;;;;;;10358314;28;19951;-73
2022/04/03 21:39:06;;;;;;;;;;;;;;;;;;10377809;28;19921;-74
2022/04/03 21:44:09;;;;;;;;;;;;;;;;;;10350695;28;20317;-73
2022/04/03 21:49:12;;;;;;;;;;;;;;;;;;10370647;28;19965;-73
2022/04/03 21:54:15;;;;;;;;;;;;;;;;;;10381339;28;20446;-70
2022/04/03 21:59:19;;;;;;;;;;;;;;;;;;10346684;28;19925;-72
2022/04/03 22:04:22;;;;;;;;;;;;;;;;;;10370906;28;19968;-71
2022/04/03 22:09:25;;;;;;;;;;;;;;;;;;10347124;28;19928;-71
2022/04/03 22:14:29;;;;;;;;;;;;;;;;;;10359293;28;20392;-72
2022/04/03 22:19:31;;;;;;;;;;;;;;;;;;10372959;28;20336;-71
2022/04/03 22:24:34;;;;;;;;;;;;;;;;;;10359627;28;20041;-71
2022/04/03 22:29:36;;;;;;;;;;;;;;;;;;10358012;28;19988;-71
2022/04/03 22:34:41;;;;;;;;;;;;;;;;;;10375520;28;20324;-72
2022/04/03 22:39:43;;;;;;;;;;;;;;;;;;10359607;28;20424;-72
2022/04/03 22:44:46;;;;;;;;;;;;;;;;;;10343909;28;20346;-72
2022/04/03 22:49:49;;;;;;;;;;;;;;;;;;10349585;28;19925;-72
2022/04/03 22:54:51;;;;;;;;;;;;;;;;;;10363863;28;19932;-73
2022/04/03 22:59:54;;;;;;;;;;;;;;;;;;10362147;28;19971;-73
2022/04/03 23:04:57;;;;;;;;;;;;;;;;;;10376072;28;19975;-71
2022/04/03 23:10:00;;;;;;;;;;;;;;;;;;10378039;28;19948;-71
2022/04/03 23:15:03;;;;;;;;;;;;;;;;;;10375462;28;19956;-73
2022/04/03 23:20:06;;;;;;;;;;;;;;;;;;10377111;28;19921;-72
2022/04/03 23:25:09;;;;;;;;;;;;;;;;;;10357268;28;19922;-72
2022/04/03 23:30:11;;;;;;;;;;;;;;;;;;10374431;28;19983;-73
2022/04/03 23:35:14;;;;;;;;;;;;;;;;;;10355696;28;19921;-73
2022/04/03 23:40:17;;;;;;;;;;;;;;;;;;10360633;28;20316;-73
2022/04/03 23:45:20;;;;;;;;;;;;;;;;;;10359947;28;19921;-72
2022/04/03 23:50:23;;;;;;;;;;;;;;;;;;10357246;28;20181;-73
2022/04/03 23:55:25;;;;;;;;;;;;;;;;;;10375656;28;19975;-71
